Time;durP1;ratioP1;P1;durP2;ratioP2;P2;SDS_P1;SDS_P2;PMS_P1;PMS_P2;Temp;Humidity;BMP_temperature;BMP_pressure;BME280_temperature;BME280_humidity;BME280_pressure;Samples;Min_cycle;Max_cycle;Signal;HPM_P1;HPM_P2
2023/03/19 00:00:29;;;;;;;54.10;34.20;;;;;;;3.64;77.73;100643.40;106277;1254;60521;-73
2023/03/19 00:02:55;;;;;;;57.90;35.80;;;;;;;3.71;77.61;100642.34;106873;1258;74093;-75
2023/03/19 00:05:22;;;;;;;64.40;40.00;;;;;;;3.75;77.38;100637.55;106689;1254;71383;-74
2023/03/19 00:07:49;;;;;;;56.70;34.30;;;;;;;3.79;77.44;100636.44;106645;1256;72035;-76
2023/03/19 00:10:18;;;;;;;54.60;34.90;;;;;;;3.92;76.67;100633.98;106887;1253;60359;-77
2023/03/19 00:12:46;;;;;;;61.10;36.70;;;;;;;4.03;76.44;100632.50;107280;1256;61275;-78
2023/03/19 00:15:14;;;;;;;57.80;35.50;;;;;;;4.08;76.54;100628.34;107003;1257;73949;-76
2023/03/19 00:17:42;;;;;;;48.80;33.50;;;;;;;4.10;76.41;100623.48;107589;1254;71330;-76
2023/03/19 00:20:11;;;;;;;45.80;32.80;;;;;;;4.02;76.09;100622.41;108142;1253;72390;-77
2023/03/19 00:22:41;;;;;;;58.80;37.50;;;;;;;3.90;76.21;100618.69;107781;1254;59676;-77
2023/03/19 00:25:08;;;;;;;55.10;37.00;;;;;;;3.87;76.56;100614.67;108260;1253;59627;-76
2023/03/19 00:27:36;;;;;;;57.10;37.90;;;;;;;3.86;76.49;100610.89;109292;1256;71344;-75
2023/03/19 00:30:05;;;;;;;50.60;35.80;;;;;;;3.88;76.57;100605.88;109579;1254;70376;-74
2023/03/19 00:32:34;;;;;;;49.80;34.90;;;;;;;4.00;76.32;100603.80;109505;1254;72879;-75
2023/03/19 00:35:02;;;;;;;55.40;35.00;;;;;;;4.09;75.86;100604.74;109487;1253;58555;-74
2023/03/19 00:37:29;;;;;;;48.50;33.60;;;;;;;4.06;75.75;100600.42;109375;1253;60425;-73
2023/03/19 00:40:01;;;;;;;54.30;36.80;;;;;;;4.01;76.16;100604.95;107638;1257;71968;-75
2023/03/19 00:42:30;;;;;;;59.20;39.20;;;;;;;4.04;76.28;100602.52;107240;1255;70124;-71
2023/03/19 00:44:57;;;;;;;52.10;36.50;;;;;;;4.09;75.98;100599.31;107525;1253;71834;-74
2023/03/19 00:47:24;;;;;;;57.20;39.40;;;;;;;4.06;75.89;100599.16;107736;1254;59857;-73
2023/03/19 00:49:53;;;;;;;56.30;38.00;;;;;;;3.99;75.91;100600.74;107728;1256;59612;-77
2023/03/19 00:52:19;;;;;;;50.80;35.90;;;;;;;3.96;75.91;100602.19;107355;1253;71521;-75
2023/03/19 00:54:46;;;;;;;57.50;37.20;;;;;;;4.03;75.78;100596.98;107355;1253;68607;-75
2023/03/19 00:57:13;;;;;;;47.50;35.10;;;;;;;4.14;75.79;100598.50;107035;1254;71076;-75
2023/03/19 00:59:40;;;;;;;52.60;37.80;;;;;;;4.17;75.73;100595.29;107661;1253;59260;-75
2023/03/19 01:02:07;;;;;;;53.30;36.40;;;;;;;4.19;75.54;100590.24;107665;1255;60468;-72
2023/03/19 01:04:34;;;;;;;53.10;37.90;;;;;;;4.19;75.48;100590.58;107100;1254;72609;-74
2023/03/19 01:07:03;;;;;;;53.70;38.90;;;;;;;4.10;75.21;100593.83;107183;1254;71143;-75
2023/03/19 01:09:34;;;;;;;53.60;38.00;;;;;;;4.00;75.39;100591.03;108840;1254;71715;-72
2023/03/19 01:12:03;;;;;;;50.60;36.10;;;;;;;3.93;75.46;100593.73;108891;1253;60385;-72
2023/03/19 01:14:33;;;;;;;49.20;35.30;;;;;;;3.88;75.62;100595.70;108814;1253;60361;-71
2023/03/19 01:17:00;;;;;;;48.00;36.70;;;;;;;3.97;75.81;100597.92;108863;1256;71815;-73
2023/03/19 01:19:27;;;;;;;51.50;36.00;;;;;;;4.10;75.64;100594.19;107265;1253;69421;-73
2023/03/19 01:21:54;;;;;;;51.70;36.50;;;;;;;4.12;75.43;100594.88;107234;1253;70505;-74
2023/03/19 01:24:22;;;;;;;51.60;37.10;;;;;;;4.12;75.68;100593.17;107168;1253;60597;-72
2023/03/19 01:26:53;;;;;;;53.90;38.60;;;;;;;4.14;75.51;100592.16;108320;1254;59908;-75
2023/03/19 01:29:35;;;;;;;50.20;36.10;;;;;;;4.12;75.32;100594.56;108166;1256;73736;-73
2023/03/19 01:32:13;;;;;;;55.90;39.30;;;;;;;4.06;75.13;100586.91;107212;1254;69988;-74
2023/03/19 01:35:09;;;;;;;50.10;38.00;;;;;;;3.97;75.09;100586.34;108238;1254;72762;-71
2023/03/19 01:37:38;;;;;;;48.90;36.40;;;;;;;3.84;75.21;100587.91;108779;1254;58436;-73
2023/03/19 01:40:06;;;;;;;50.50;34.90;;;;;;;3.82;75.20;100589.22;107872;1255;60296;-73
2023/03/19 01:42:33;;;;;;;46.30;34.50;;;;;;;3.81;75.11;100590.95;108737;1253;74987;-72
2023/03/19 01:45:41;;;;;;;55.60;37.30;;;;;;;3.70;75.32;100591.61;107748;1253;70496;-73
2023/03/19 01:48:44;;;;;;;58.20;38.10;;;;;;;3.60;75.70;100586.90;107235;1254;70391;-73
2023/03/19 01:51:16;;;;;;;59.20;41.30;;;;;;;3.51;75.95;100585.90;108157;1252;60490;-68
2023/03/19 01:53:51;;;;;;;67.60;41.30;;;;;;;3.44;75.91;100588.47;106478;1254;60414;-71
2023/03/19 01:57:05;;;;;;;64.70;41.10;;;;;;;3.31;76.17;100592.46;105645;1263;73853;-69
2023/03/19 02:00:04;;;;;;;57.00;38.80;;;;;;;3.24;76.13;100592.08;105998;1254;71167;-72
2023/03/19 02:02:44;;;;;;;58.90;39.00;;;;;;;3.23;76.04;100592.10;105968;1257;70643;-74
2023/03/19 02:05:24;;;;;;;65.00;41.70;;;;;;;3.21;76.13;100591.77;105856;1254;60482;-74
2023/03/19 02:07:57;;;;;;;68.50;42.70;;;;;;;3.11;76.22;100591.86;105994;1252;61282;-75
2023/03/19 02:10:25;;;;;;;64.80;43.10;;;;;;;2.97;76.43;100595.34;106036;1254;75055;-74
2023/03/19 02:12:52;;;;;;;76.70;47.20;;;;;;;2.88;76.62;100598.18;105981;1259;69936;-74
2023/03/19 02:15:19;;;;;;;74.20;46.40;;;;;;;2.82;76.73;100601.75;105978;1258;72842;-73
2023/03/19 02:17:46;;;;;;;74.60;47.00;;;;;;;2.74;76.90;100606.09;106236;1254;60475;-75
2023/03/19 02:20:26;;;;;;;68.50;43.90;;;;;;;2.66;76.78;100606.09;106926;1258;61486;-74
2023/03/19 02:22:59;;;;;;;64.20;41.00;;;;;;;2.68;76.72;100609.08;107213;1253;73797;-72
2023/03/19 02:25:32;;;;;;;67.10;41.70;;;;;;;2.68;76.35;100609.77;105897;1257;69548;-74
2023/03/19 02:28:01;;;;;;;79.40;44.70;;;;;;;2.59;76.75;100609.68;105954;1254;72872;-75
2023/03/19 02:30:31;;;;;;;74.00;45.30;;;;;;;2.44;76.86;100614.07;105852;1252;61051;-76
2023/03/19 02:33:03;;;;;;;72.90;45.20;;;;;;;2.30;77.20;100611.80;106061;1254;60681;-73
2023/03/19 02:35:32;;;;;;;72.00;43.80;;;;;;;2.24;77.45;100613.06;105806;1255;72986;-73
2023/03/19 02:38:00;;;;;;;78.80;48.40;;;;;;;2.16;77.67;100617.86;105920;1256;70228;-73
2023/03/19 02:40:29;;;;;;;70.10;44.10;;;;;;;2.11;77.70;100619.77;105866;1253;71949;-75
2023/03/19 02:42:57;;;;;;;69.60;44.00;;;;;;;2.14;77.52;100619.23;105838;1254;62119;-73
2023/03/19 02:45:28;;;;;;;68.50;44.10;;;;;;;2.11;77.36;100618.52;105765;1254;60425;-73
2023/03/19 02:47:55;;;;;;;82.30;48.80;;;;;;;1.96;77.74;100618.34;105789;1256;74080;-72
2023/03/19 02:50:22;;;;;;;76.20;47.90;;;;;;;1.87;78.27;100620.30;105817;1254;71230;-72
2023/03/19 02:52:49;;;;;;;82.80;49.60;;;;;;;1.83;78.47;100618.65;105848;1253;73806;-74
2023/03/19 02:55:17;;;;;;;84.70;50.50;;;;;;;1.78;78.62;100619.42;105899;1254;60415;-74
2023/03/19 02:57:44;;;;;;;74.50;49.20;;;;;;;1.72;78.63;100617.66;105947;1253;61479;-73
2023/03/19 03:00:17;;;;;;;72.90;45.90;;;;;;;1.68;78.86;100622.80;106052;1254;73087;-72
2023/03/19 03:02:44;;;;;;;75.20;45.00;;;;;;;1.75;78.80;100626.08;105999;1254;71022;-73
2023/03/19 03:05:12;;;;;;;75.90;45.70;;;;;;;1.80;78.69;100624.40;106211;1253;72732;-76
2023/03/19 03:07:43;;;;;;;78.50;47.70;;;;;;;1.75;79.01;100626.73;106524;1256;60402;-71
2023/03/19 03:10:10;;;;;;;73.70;45.80;;;;;;;1.70;79.22;100623.77;106194;1254;60682;-72
2023/03/19 03:12:37;;;;;;;82.80;48.50;;;;;;;1.66;79.76;100622.58;107069;1252;72998;-74
2023/03/19 03:15:07;;;;;;;77.70;48.10;;;;;;;1.67;79.89;100622.20;108192;1254;71330;-74
2023/03/19 03:17:38;;;;;;;81.20;49.80;;;;;;;1.67;79.89;100622.70;107364;1255;72483;-73
2023/03/19 03:20:10;;;;;;;69.40;44.20;;;;;;;1.70;80.30;100622.68;106277;1253;60866;-73
2023/03/19 03:22:39;;;;;;;63.70;42.30;;;;;;;1.86;79.96;100629.98;105621;1254;60540;-72
2023/03/19 03:25:06;;;;;;;63.40;44.20;;;;;;;1.95;79.63;100628.58;106029;1256;73693;-74
2023/03/19 03:27:33;;;;;;;66.30;43.40;;;;;;;1.90;79.72;100631.29;105855;1254;71192;-73
2023/03/19 03:30:00;;;;;;;64.40;42.60;;;;;;;1.86;79.91;100631.41;105733;1254;73727;-73
2023/03/19 03:32:27;;;;;;;67.20;45.30;;;;;;;1.80;80.17;100629.31;106087;1254;60463;-73
2023/03/19 03:34:54;;;;;;;64.90;43.40;;;;;;;1.75;80.51;100628.67;105749;1253;60543;-73
2023/03/19 03:37:22;;;;;;;70.50;47.00;;;;;;;1.72;80.54;100626.77;105962;1254;73926;-74
2023/03/19 03:39:48;;;;;;;58.70;41.70;;;;;;;1.69;80.54;100624.68;105783;1254;70291;-74
2023/03/19 03:42:15;;;;;;;56.80;39.00;;;;;;;1.78;80.38;100627.63;105829;1254;60399;-74
2023/03/19 03:44:42;;;;;;;59.50;39.90;;;;;;;1.87;80.30;100627.29;105955;1254;60800;-76
2023/03/19 03:47:11;;;;;;;56.00;40.50;;;;;;;1.88;80.62;100629.32;105850;1252;60797;-73
2023/03/19 03:49:40;;;;;;;58.30;41.00;;;;;;;1.86;80.87;100627.39;105939;1254;73037;-74
2023/03/19 03:52:07;;;;;;;65.10;42.60;;;;;;;1.84;80.86;100626.08;105786;1254;70537;-74
2023/03/19 03:54:34;;;;;;;59.80;43.00;;;;;;;1.84;81.18;100624.86;105904;1253;71827;-74
2023/03/19 03:57:01;;;;;;;63.70;42.80;;;;;;;1.85;81.28;100624.80;105645;1254;60540;-71
2023/03/19 03:59:36;;;;;;;61.30;39.50;;;;;;;1.86;81.26;100626.83;105820;1252;60768;-73
2023/03/19 04:02:03;;;;;;;57.50;37.10;;;;;;;1.98;81.08;100623.01;105810;1257;74567;-72
2023/03/19 04:04:29;;;;;;;64.80;39.10;;;;;;;2.09;80.85;100625.62;105699;1254;71588;-74
2023/03/19 04:07:03;;;;;;;56.80;39.40;;;;;;;2.11;80.79;100626.75;106573;1253;72849;-72
2023/03/19 04:09:40;;;;;;;57.40;40.20;;;;;;;2.07;80.91;100622.23;108568;1252;60303;-72
2023/03/19 04:12:08;;;;;;;57.90;41.60;;;;;;;2.09;80.95;100622.19;107673;1254;59368;-73
2023/03/19 04:14:41;;;;;;;59.30;41.10;;;;;;;2.10;81.08;100620.87;106088;1254;74098;-72
2023/03/19 04:17:08;;;;;;;58.40;40.40;;;;;;;2.15;81.22;100619.33;105908;1254;70380;-73
2023/03/19 04:19:35;;;;;;;61.70;39.80;;;;;;;2.18;80.79;100619.50;105909;1257;70536;-74
2023/03/19 04:22:02;;;;;;;55.40;37.90;;;;;;;2.30;80.72;100620.53;105972;1253;61960;-75
2023/03/19 04:24:32;;;;;;;55.10;37.70;;;;;;;2.44;80.50;100619.30;105972;1253;60469;-75
2023/03/19 04:26:59;;;;;;;54.50;37.60;;;;;;;2.44;80.25;100616.02;106022;1256;72972;-75
2023/03/19 04:29:27;;;;;;;60.00;39.30;;;;;;;2.40;80.24;100615.20;106132;1254;69393;-74
2023/03/19 04:31:53;;;;;;;55.20;39.10;;;;;;;2.38;80.21;100615.17;106018;1254;73689;-74
2023/03/19 04:34:20;;;;;;;60.40;40.40;;;;;;;2.33;80.27;100611.77;106230;1256;60506;-76
2023/03/19 04:36:49;;;;;;;59.80;39.80;;;;;;;2.34;80.50;100611.54;106364;1254;60924;-72
2023/03/19 04:39:17;;;;;;;52.50;37.00;;;;;;;2.36;80.46;100613.14;107022;1253;74911;-73
2023/03/19 04:41:46;;;;;;;51.90;36.90;;;;;;;2.51;80.39;100613.65;106067;1254;68336;-75
2023/03/19 04:44:40;;;;;;;52.60;37.10;;;;;;;2.67;80.07;100611.95;106003;1254;73731;-74
2023/03/19 04:47:09;;;;;;;53.00;36.80;;;;;;;2.69;79.85;100609.73;105951;1253;60536;-73
2023/03/19 04:49:47;;;;;;;55.80;35.90;;;;;;;2.66;79.78;100617.83;105959;1256;60485;-71
2023/03/19 04:52:14;;;;;;;53.40;36.00;;;;;;;2.63;80.27;100616.24;105959;1254;73905;-73
2023/03/19 04:54:43;;;;;;;58.30;37.90;;;;;;;2.66;80.40;100617.29;105950;1254;71129;-74
2023/03/19 04:57:11;;;;;;;55.70;39.60;;;;;;;2.69;80.17;100615.48;105992;1254;73450;-75
2023/03/19 04:59:41;;;;;;;38.90;30.10;;;;;;;2.75;80.19;100616.73;105966;1254;62096;-74
2023/03/19 05:02:09;;;;;;;42.60;29.00;;;;;;;2.91;80.09;100613.90;106601;1254;61332;-72
2023/03/19 05:04:36;;;;;;;38.50;26.70;;;;;;;3.09;79.79;100617.90;108094;1256;73760;-71
2023/03/19 05:07:07;;;;;;;41.60;28.70;;;;;;;3.16;79.60;100621.98;107237;1254;69489;-73
2023/03/19 05:09:35;;;;;;;41.00;28.90;;;;;;;3.16;79.20;100621.48;106041;1256;72935;-75
2023/03/19 05:12:01;;;;;;;43.30;31.00;;;;;;;3.11;79.26;100616.73;105965;1256;60539;-72
2023/03/19 05:14:34;;;;;;;42.40;32.10;;;;;;;3.07;79.20;100619.38;105849;1253;61349;-73
2023/03/19 05:17:06;;;;;;;39.00;31.30;;;;;;;3.05;79.40;100619.88;105838;1256;74732;-75
2023/03/19 05:19:51;;;;;;;39.00;29.00;;;;;;;3.10;79.55;100618.70;105965;1254;71190;-76
2023/03/19 05:22:20;;;;;;;35.80;26.50;;;;;;;3.24;79.25;100613.78;106247;1254;72970;-78
2023/03/19 05:24:47;;;;;;;34.50;25.00;;;;;;;3.36;79.24;100613.35;105922;1254;60543;-76
2023/03/19 05:27:13;;;;;;;33.60;25.00;;;;;;;3.41;79.07;100613.58;105788;1254;61076;-75
2023/03/19 05:29:47;;;;;;;32.60;25.30;;;;;;;3.43;79.15;100611.81;106119;1252;73744;-75
2023/03/19 05:32:51;;;;;;;33.40;26.80;;;;;;;3.53;79.28;100616.11;105928;1253;71036;-74
2023/03/19 05:35:26;;;;;;;33.50;25.10;;;;;;;3.61;79.03;100613.30;105822;1254;71527;-71
2023/03/19 05:37:53;;;;;;;34.00;25.90;;;;;;;3.67;78.51;100611.32;105891;1253;60619;-75
2023/03/19 05:40:22;;;;;;;33.10;24.00;;;;;;;3.68;78.38;100612.61;105949;1256;60379;-77
2023/03/19 05:42:50;;;;;;;29.50;23.10;;;;;;;3.82;78.20;100613.63;105927;1254;73719;-77
2023/03/19 05:45:21;;;;;;;33.70;25.30;;;;;;;3.95;77.63;100611.16;105891;1257;70723;-76
2023/03/19 05:47:51;;;;;;;31.90;24.70;;;;;;;3.99;77.74;100610.91;105846;1258;74219;-76
2023/03/19 05:50:18;;;;;;;31.70;26.10;;;;;;;4.03;77.44;100607.10;106025;1254;60477;-74
2023/03/19 05:53:03;;;;;;;31.40;24.90;;;;;;;4.07;77.45;100607.69;105923;1253;61432;-71
2023/03/19 05:55:31;;;;;;;34.30;26.30;;;;;;;4.14;77.37;100611.48;106139;1256;74625;-73
2023/03/19 05:58:09;;;;;;;34.40;27.90;;;;;;;4.18;76.99;100605.20;108086;1253;70572;-74
2023/03/19 06:00:37;;;;;;;38.90;27.80;;;;;;;4.22;76.80;100609.14;108662;1253;70539;-75
2023/03/19 06:03:04;;;;;;;38.60;28.40;;;;;;;4.38;76.10;100608.02;106994;1256;60616;-75
2023/03/19 06:05:42;;;;;;;42.90;29.50;;;;;;;4.51;75.82;100611.03;106206;1256;60734;-76
2023/03/19 06:08:28;;;;;;;39.60;30.20;;;;;;;4.51;75.65;100612.58;106076;1253;75108;-74
2023/03/19 06:11:05;;;;;;;44.20;33.80;;;;;;;4.53;75.70;100619.09;106020;1254;71415;-76
2023/03/19 06:13:32;;;;;;;47.40;33.90;;;;;;;4.57;75.40;100618.30;106008;1253;73383;-74
2023/03/19 06:16:05;;;;;;;45.20;34.20;;;;;;;4.65;75.34;100621.96;105833;1254;60451;-74
2023/03/19 06:18:44;;;;;;;44.10;34.70;;;;;;;4.71;75.10;100620.59;105889;1254;60566;-77
2023/03/19 06:21:12;;;;;;;48.60;37.40;;;;;;;4.76;75.13;100621.88;105916;1254;72109;-76
2023/03/19 06:23:40;;;;;;;43.50;33.80;;;;;;;4.79;74.66;100616.42;106302;1253;70571;-76
2023/03/19 06:26:16;;;;;;;45.60;34.50;;;;;;;4.82;74.19;100617.44;105994;1254;71652;-76
2023/03/19 06:28:52;;;;;;;42.80;30.50;;;;;;;4.93;74.06;100615.74;106068;1254;60514;-74
2023/03/19 06:31:19;;;;;;;40.70;31.30;;;;;;;4.98;73.99;100619.46;105861;1256;60515;-73
2023/03/19 06:33:55;;;;;;;39.50;31.00;;;;;;;4.95;73.87;100617.39;105978;1253;74075;-74
2023/03/19 06:36:25;;;;;;;45.30;33.80;;;;;;;4.98;73.88;100624.35;105949;1257;71074;-75
2023/03/19 06:38:57;;;;;;;39.40;32.50;;;;;;;5.05;73.90;100623.50;105936;1254;73892;-75
2023/03/19 06:41:24;;;;;;;43.10;33.80;;;;;;;5.11;73.68;100624.64;105883;1256;60457;-75
2023/03/19 06:43:52;;;;;;;41.80;32.00;;;;;;;5.12;73.43;100624.75;106483;1252;59333;-76
2023/03/19 06:46:18;;;;;;;44.10;33.50;;;;;;;5.10;73.28;100626.44;107484;1256;74772;-78
2023/03/19 06:48:45;;;;;;;38.80;29.60;;;;;;;5.11;73.17;100625.17;106467;1255;70138;-76
2023/03/19 06:51:19;;;;;;;33.70;28.40;;;;;;;5.23;72.97;100627.09;105983;1256;73580;-74
2023/03/19 06:53:45;;;;;;;37.40;28.40;;;;;;;5.35;72.80;100621.31;107943;1253;60318;-73
2023/03/19 06:56:12;;;;;;;38.80;29.80;;;;;;;5.42;72.78;100625.34;107425;1253;60418;-73
2023/03/19 06:58:45;;;;;;;37.60;30.10;;;;;;;5.53;72.57;100627.33;106753;1253;72234;-77
2023/03/19 07:01:13;;;;;;;35.10;27.60;;;;;;;5.64;72.32;100625.86;106950;1253;70217;-74
2023/03/19 07:03:40;;;;;;;35.20;29.20;;;;;;;5.77;71.85;100626.66;106993;1254;70102;-75
2023/03/19 07:06:06;;;;;;;25.40;20.10;;;;;;;5.91;71.55;100624.69;106431;1254;60555;-76
2023/03/19 07:08:33;;;;;;;25.70;22.90;;;;;;;6.05;70.17;100620.17;105994;1253;60625;-77
2023/03/19 07:11:04;;;;;;;22.90;17.60;;;;;;;6.16;69.48;100623.16;105956;1256;73849;-76
2023/03/19 07:13:32;;;;;;;17.80;15.30;;;;;;;6.25;68.38;100622.48;106120;1253;69632;-76
2023/03/19 07:15:59;;;;;;;15.90;13.90;;;;;;;6.30;67.57;100624.20;105915;1256;72635;-75
2023/03/19 07:18:26;;;;;;;21.20;16.80;;;;;;;6.38;66.33;100628.89;106198;1256;60428;-73
2023/03/19 07:20:54;;;;;;;21.10;18.50;;;;;;;6.40;65.85;100628.36;106376;1254;60378;-73
2023/03/19 07:23:21;;;;;;;20.00;16.80;;;;;;;6.43;65.96;100632.52;106116;1256;73412;-76
2023/03/19 07:25:47;;;;;;;18.80;15.40;;;;;;;6.46;65.29;100633.49;106329;1254;70333;-76
2023/03/19 07:28:15;;;;;;;17.10;13.20;;;;;;;6.45;64.62;100632.88;106161;1253;73741;-76
2023/03/19 07:30:43;;;;;;;14.70;13.10;;;;;;;6.42;64.11;100632.92;105965;1252;60533;-77
2023/03/19 07:33:09;;;;;;;13.80;11.60;;;;;;;6.46;64.01;100632.48;105883;1256;60342;-75
2023/03/19 07:35:36;;;;;;;14.80;11.90;;;;;;;6.53;63.70;100632.46;105950;1254;73043;-76
2023/03/19 07:38:03;;;;;;;13.60;10.60;;;;;;;6.63;63.39;100632.39;106112;1254;71208;-76
2023/03/19 07:40:34;;;;;;;11.00;8.30;;;;;;;6.71;63.07;100633.73;106337;1254;71479;-76
2023/03/19 07:43:01;;;;;;;9.40;8.50;;;;;;;6.76;62.80;100637.74;106356;1256;60447;-76
2023/03/19 07:45:30;;;;;;;11.70;9.30;;;;;;;6.80;62.34;100639.48;105961;1254;60530;-78
2023/03/19 07:48:02;;;;;;;12.70;8.70;;;;;;;6.83;62.09;100640.27;107645;1252;74363;-75
2023/03/19 07:50:30;;;;;;;9.00;7.90;;;;;;;6.88;61.84;100643.73;108616;1254;69097;-75
2023/03/19 07:52:56;;;;;;;10.00;8.30;;;;;;;6.89;61.58;100641.91;107379;1252;72175;-77
2023/03/19 07:55:23;;;;;;;11.10;9.30;;;;;;;6.90;61.75;100642.58;106345;1256;60520;-75
2023/03/19 07:57:50;;;;;;;12.10;9.80;;;;;;;6.91;61.63;100642.19;106127;1253;60460;-76
2023/03/19 08:00:21;;;;;;;12.70;11.10;;;;;;;6.90;61.93;100644.16;105870;1252;74876;-72
2023/03/19 08:02:48;;;;;;;13.80;11.70;;;;;;;6.93;61.75;100647.33;106503;1252;71265;-78
2023/03/19 08:05:15;;;;;;;13.00;11.40;;;;;;;6.95;61.85;100645.20;106798;1254;73003;-79
2023/03/19 08:07:48;;;;;;;16.40;11.50;;;;;;;6.97;61.83;100641.50;106384;1252;60447;-77
2023/03/19 08:10:15;;;;;;;14.20;12.60;;;;;;;6.99;61.82;100642.92;106207;1257;60517;-76
2023/03/19 08:12:42;;;;;;;15.00;11.40;;;;;;;7.02;61.72;100639.17;106373;1252;74727;-77
2023/03/19 08:15:14;;;;;;;15.10;13.30;;;;;;;7.03;61.62;100630.24;106236;1254;69909;-79
2023/03/19 08:17:42;;;;;;;18.30;14.90;;;;;;;7.04;61.59;100635.06;105998;1252;72087;-78
2023/03/19 08:20:10;;;;;;;17.10;15.30;;;;;;;7.06;61.78;100632.86;105997;1254;60587;-80
2023/03/19 08:22:38;;;;;;;19.90;16.80;;;;;;;7.08;61.60;100633.73;106325;1252;60540;-78
2023/03/19 08:25:06;;;;;;;21.70;17.40;;;;;;;7.04;61.33;100635.65;107140;1253;72860;-79
2023/03/19 08:27:34;;;;;;;19.90;17.10;;;;;;;6.98;61.60;100635.40;106122;1254;70727;-76
2023/03/19 08:30:06;;;;;;;19.20;16.90;;;;;;;7.02;61.70;100631.73;107455;1255;71464;-77
2023/03/19 08:32:33;;;;;;;21.80;18.30;;;;;;;7.13;61.53;100629.33;107586;1253;60319;-75
2023/03/19 08:35:04;;;;;;;22.10;18.50;;;;;;;7.17;61.36;100627.21;106132;1254;61079;-75
2023/03/19 08:37:33;;;;;;;21.20;17.50;;;;;;;7.13;60.96;100624.48;107071;1256;74415;-77
2023/03/19 08:40:00;;;;;;;20.20;17.10;;;;;;;7.10;61.03;100620.86;106125;1254;70530;-77
2023/03/19 08:42:27;;;;;;;19.30;16.60;;;;;;;7.11;61.06;100620.31;107169;1253;71689;-77
2023/03/19 08:44:57;;;;;;;19.80;17.40;;;;;;;7.16;61.03;100620.41;109453;1254;59449;-77
2023/03/19 08:47:24;;;;;;;18.70;16.10;;;;;;;7.28;60.98;100616.75;108405;1253;60549;-75
2023/03/19 08:49:52;;;;;;;16.40;14.40;;;;;;;7.47;61.13;100615.41;106112;1254;72967;-76
2023/03/19 08:52:19;;;;;;;16.80;13.90;;;;;;;7.66;60.65;100611.69;106094;1256;70461;-77
2023/03/19 08:54:46;;;;;;;13.90;12.40;;;;;;;7.86;60.13;100608.48;105845;1254;70551;-76
2023/03/19 08:57:13;;;;;;;17.60;13.20;;;;;;;8.06;59.71;100605.19;105924;1254;60532;-76
2023/03/19 08:59:40;;;;;;;14.00;12.40;;;;;;;8.33;59.14;100606.63;106113;1252;61286;-75
2023/03/19 09:02:09;;;;;;;15.50;12.20;;;;;;;8.55;58.12;100600.29;105546;1256;415512;-74
2023/03/19 09:06:13;;;;;;;17.20;12.50;;;;;;;8.71;57.92;100598.59;103337;1286;602430;-75
2023/03/19 09:08:57;;;;;;;13.20;11.80;;;;;;;8.81;57.43;100601.02;105103;1266;59527;-72
2023/03/19 09:11:26;;;;;;;13.20;11.60;;;;;;;8.83;56.69;100598.22;105025;1267;59375;-74
2023/03/19 09:13:54;;;;;;;13.80;12.40;;;;;;;8.83;56.52;100595.19;105361;1268;71223;-74
2023/03/19 09:16:21;;;;;;;14.80;11.30;;;;;;;8.86;56.75;100595.13;105355;1263;71112;-72
2023/03/19 09:18:50;;;;;;;13.10;11.70;;;;;;;8.89;56.25;100586.58;105134;1260;299490;-74
2023/03/19 09:21:17;;;;;;;12.60;9.70;;;;;;;8.82;55.95;100591.60;105479;1260;59358;-72
2023/03/19 09:23:44;;;;;;;13.40;11.80;;;;;;;8.76;56.15;100590.89;105601;1261;59470;-75
2023/03/19 09:26:14;;;;;;;15.10;12.00;;;;;;;8.79;56.51;100585.84;105918;1256;71734;-74
2023/03/19 09:28:41;;;;;;;12.00;10.80;;;;;;;8.94;56.18;100582.88;105810;1254;70551;-71
2023/03/19 09:31:10;;;;;;;11.80;10.60;;;;;;;9.10;55.70;100578.34;105701;1253;72263;-73
2023/03/19 09:33:37;;;;;;;13.40;9.80;;;;;;;9.18;55.50;100574.09;106005;1252;61259;-74
2023/03/19 09:36:04;;;;;;;11.50;10.30;;;;;;;9.33;55.11;100568.61;105854;1253;60076;-74
2023/03/19 09:38:34;;;;;;;11.60;9.60;;;;;;;9.59;54.44;100563.81;106685;1256;73984;-73
2023/03/19 09:41:06;;;;;;;11.70;9.60;;;;;;;9.91;54.02;100561.02;107565;1253;69404;-73
2023/03/19 09:43:56;;;;;;;12.40;10.00;;;;;;;10.19;53.63;100561.16;106916;1254;72462;-73
2023/03/19 09:46:28;;;;;;;12.10;9.10;;;;;;;10.47;52.98;100563.73;106309;1254;59755;-73
2023/03/19 09:49:28;;;;;;;8.90;8.00;;;;;;;10.81;52.26;100566.31;106226;1254;59764;-74
2023/03/19 09:52:02;;;;;;;10.70;8.50;;;;;;;11.01;50.86;100564.64;106210;1254;71434;-72
2023/03/19 09:54:41;;;;;;;12.40;9.80;;;;;;;11.07;50.90;100563.73;106176;1254;70383;-74
2023/03/19 09:57:08;;;;;;;10.70;8.30;;;;;;;11.14;50.62;100556.83;106183;1254;73792;-72
2023/03/19 09:59:36;;;;;;;10.40;9.10;;;;;;;11.18;50.30;100550.92;107181;1254;61162;-70
2023/03/19 10:02:20;;;;;;;10.80;9.30;;;;;;;11.22;50.52;100549.52;106569;1253;61526;-72
2023/03/19 10:04:54;;;;;;;9.20;8.30;;;;;;;11.59;50.55;100546.66;106324;1254;74162;-71
2023/03/19 10:07:31;;;;;;;;;;;;;;;12.32;49.65;100545.52;106136;1254;71664;-74
2023/03/19 10:10:24;;;;;;;9.30;8.40;;;;;;;13.16;48.03;100538.42;106487;1259;73636;-75
2023/03/19 10:12:56;;;;;;;9.60;8.10;;;;;;;14.30;46.95;100539.40;106637;1253;60265;-76
2023/03/19 10:15:28;;;;;;;9.00;8.10;;;;;;;15.44;44.24;100530.31;107142;1257;59648;-75
2023/03/19 10:18:16;;;;;;;8.20;7.40;;;;;;;16.28;42.68;100522.65;107902;1254;73157;-73
2023/03/19 10:21:04;;;;;;;9.70;7.80;;;;;;;16.82;41.92;100517.78;107806;1253;71168;-74
2023/03/19 10:23:38;;;;;;;8.50;7.70;;;;;;;17.42;41.00;100512.68;108270;1253;73628;-73
2023/03/19 10:26:10;;;;;;;8.20;7.50;;;;;;;18.03;39.90;100505.02;108299;1253;60335;-75
2023/03/19 10:28:41;;;;;;;9.10;8.20;;;;;;;18.60;39.25;100504.87;108300;1253;59074;-71
2023/03/19 10:31:25;;;;;;;9.20;8.20;;;;;;;19.33;38.47;100497.14;108306;1254;74019;-73
2023/03/19 10:34:18;;;;;;;7.90;7.20;;;;;;;20.19;37.04;100489.38;108244;1254;70380;-73
2023/03/19 10:36:46;;;;;;;7.80;7.10;;;;;;;20.84;35.55;100483.79;108604;1253;72636;-72
2023/03/19 10:39:17;;;;;;;8.60;7.70;;;;;;;21.13;34.48;100487.66;108596;1254;60030;-74
2023/03/19 10:42:20;;;;;;;7.90;7.20;;;;;;;21.12;34.41;100483.09;108719;1253;60420;-79
2023/03/19 10:44:58;;;;;;;7.90;7.10;;;;;;;21.17;34.29;100479.31;108655;1254;72122;-77
2023/03/19 10:47:34;;;;;;;7.50;6.80;;;;;;;21.28;34.01;100471.95;108310;1254;70824;-74
2023/03/19 10:50:02;;;;;;;7.70;7.00;;;;;;;21.48;33.78;100471.09;108339;1254;72685;-75
2023/03/19 10:52:36;;;;;;;7.80;7.10;;;;;;;21.75;33.65;100471.55;108264;1254;60256;-73
2023/03/19 10:55:17;;;;;;;8.90;7.50;;;;;;;22.17;32.68;100461.61;107470;1254;60205;-73
2023/03/19 10:57:51;;;;;;;8.20;7.40;;;;;;;22.41;32.52;100460.98;106896;1255;74279;-76
2023/03/19 11:00:25;;;;;;;7.80;7.10;;;;;;;22.51;32.31;100455.13;105829;1259;71042;-74
2023/03/19 11:02:55;;;;;;;8.40;7.50;;;;;;;22.60;32.46;100450.55;105793;1259;71733;-73
2023/03/19 11:05:24;;;;;;;8.30;7.60;;;;;;;23.01;32.09;100448.36;105690;1259;60117;-75
2023/03/19 11:08:07;;;;;;;8.70;7.90;;;;;;;23.44;31.56;100441.59;105734;1255;60320;-81
2023/03/19 11:10:38;;;;;;;8.00;7.30;;;;;;;23.88;30.93;100436.24;106338;1254;72236;-80
2023/03/19 11:13:14;;;;;;;9.20;8.30;;;;;;;24.19;30.38;100436.04;105800;1260;70290;-74
2023/03/19 11:15:47;;;;;;;8.50;7.70;;;;;;;24.13;30.28;100429.52;106862;1256;71697;-76
2023/03/19 11:18:20;;;;;;;9.70;8.10;;;;;;;24.30;29.99;100425.56;105809;1254;61250;-74
2023/03/19 11:20:58;;;;;;;8.60;7.80;;;;;;;24.54;29.99;100426.27;105930;1253;60398;-76
2023/03/19 11:23:37;;;;;;;8.80;8.00;;;;;;;24.89;29.50;100425.77;105881;1254;74254;-77
2023/03/19 11:26:04;;;;;;;8.90;8.20;;;;;;;24.94;28.97;100425.30;105921;1254;71234;-73
2023/03/19 11:28:33;;;;;;;8.50;7.70;;;;;;;24.72;29.22;100427.11;106119;1256;72435;-74
2023/03/19 11:31:12;;;;;;;9.10;8.30;;;;;;;24.76;29.41;100431.15;108051;1253;61632;-73